Lisboa, Portugal

10:00 PM WET em 31 de Outubro de 2014 (GMT +0000)
Lisbon | Change Station
CLOSE
Current Station
Aeroporto
Location: Lisbon,
Altitude: 404 ft
Estações Meteorológicas Próximas

Elev 404 ft 38.78 °N, 9.14 °W | Updated 30 minutes ago

Partly Cloudy
Parcialmente Nublado
66 °F
Aparente 66 °F
N
5
Vento Variável Vento de Oeste

Hoje
Máxima -- | Mínima -- °F
--% Possibilidade de Precip.
Ontem
Máxima -- | Mínima -- °F
Precip. -- pol
7:02 AM 5:37 PM
Quarto crescente, 59% visible
Pressão 30.15 pol
Visibilidade 6.2 milhas
Nuvens Poucas 900 ft
Ponto de Orvalho 64 °F
Humidade 94%
Chuva 0.00 pol
Altura de Neve Não disponível
UV 0 em vez de 12
Pólen Não disponível
Qualidade do Ar Não disponível
Flu Activity Não disponível
METAR LPPT 312130Z 26004KT 230V310 9999 FEW009 19/18 Q1021

More Conditions Fewer Conditions

Pressão 30.15 pol
Visibilidade 6.2 milhas
Nuvens Poucas 900 ft
Ponto de Orvalho 64 °F
Humidade 94%
Chuva 0.00 pol
Altura de Neve Não disponível
UV 0 em vez de 12
Pólen Não disponível
Qualidade do Ar Não disponível
Flu Activity Não disponível
METAR LPPT 312130Z 26004KT 230V310 9999 FEW009 19/18 Q1021

More Conditions Fewer Conditions

10-Day Weather Forecast

Almanac

Astronomia

Oct. 31, 2014 Nascer Pôr
Hora atual
Crepúsculo civil
Crepúsculo náutico
Crepúsculo astronómico
Lua
Comprimento da luz visível
Duração do Dia
Tomorrow will be .
, % of the Moon is Illuminated

Extremos de Hoje

Altitude na localidade Altura mais baixa na localidade

Community

WunderPhotos

Upload Photos

1,766,740 fotografias inseridas!

WunderBlogs® & News

Nearby

Qualidade do Ar

  Qualidade do Ar Índice da Q.A. Poluente
Not available.

Altura da Neve

Estação altura Altitude

Actividade Sísmisca

Cidade Distância Mag. Hora & Data
Mínima magnitude apresentada é 2.5.

Temperaturas das Águas Costeiras

Local Temperatura

Estações Meteorológicas Próximas